Schedule Details

Flight Number: CPX807
Departure: Thule Air Base (BGTL) at N/A
Arrival: Joint Base McGuire Dix Lakehurst (KWRI) at N/A


Current Weather Information
BGTL 151956Z AUTO 10009KT 9999 SCT070 M23/M25 A2984 RMK AO2 SLP096 T12261248 TSNO CHINO RWY26 $
KWRI 152018Z AUTO 23012G19KT 10SM FEW095 SCT200 17/04 A2961 RMK AO2 RAB09E18 SLP027 VISNO RWY06 $

Route Map